createdAt,value
2023-03-25T00:00:26.388Z,7.97
2023-03-25T00:02:56.979Z,13.93
2023-03-25T00:05:26.573Z,7.65
2023-03-25T00:07:56.458Z,6.93
2023-03-25T00:10:26.194Z,6.95
2023-03-25T00:13:04.728Z,10.95
2023-03-25T00:15:34.691Z,10.80
2023-03-25T00:18:04.381Z,6.93
2023-03-25T00:20:33.827Z,12.75
2023-03-25T00:23:04.325Z,7.75
2023-03-25T00:25:35.036Z,11.82
2023-03-25T00:28:04.872Z,8.50
2023-03-25T00:30:35.377Z,7.95
2023-03-25T00:33:10.700Z,6.70
2023-03-25T00:35:39.606Z,9.90
2023-03-25T00:38:08.246Z,11.20
2023-03-25T00:40:36.796Z,10.65
2023-03-25T00:43:07.746Z,8.48
2023-03-25T00:45:36.221Z,7.43
2023-03-25T00:48:07.126Z,9.98
2023-03-25T00:50:35.821Z,7.80
2023-03-25T00:53:04.473Z,10.40
2023-03-25T00:55:33.941Z,5.75
2023-03-25T00:58:02.425Z,8.98
2023-03-25T01:00:32.215Z,8.38
2023-03-25T01:03:03.881Z,9.50
2023-03-25T01:05:33.209Z,8.40
2023-03-25T01:08:02.122Z,11.25
2023-03-25T01:10:31.523Z,9.70
2023-03-25T01:12:59.988Z,8.73
2023-03-25T01:15:28.422Z,9.65
2023-03-25T01:17:58.230Z,9.27
2023-03-25T01:20:28.790Z,8.63
2023-03-25T01:22:57.757Z,5.68
2023-03-25T01:25:26.414Z,13.98
2023-03-25T01:27:54.817Z,9.00
2023-03-25T01:30:23.364Z,9.02
2023-03-25T01:32:51.935Z,6.45
2023-03-25T01:35:21.868Z,10.77
2023-03-25T01:37:50.357Z,7.82
2023-03-25T01:40:20.508Z,8.20
2023-03-25T01:42:48.988Z,9.63
2023-03-25T01:45:21.773Z,7.93
2023-03-25T01:50:18.832Z,7.13
2023-03-25T01:52:50.929Z,7.05
2023-03-25T01:55:24.016Z,11.52
2023-03-25T01:57:54.348Z,9.82
2023-03-25T02:00:23.239Z,5.82
2023-03-25T02:02:52.615Z,8.70
2023-03-25T02:05:25.274Z,9.40
2023-03-25T02:07:57.870Z,8.02
2023-03-25T02:10:26.398Z,8.90
2023-03-25T02:12:54.826Z,6.75
2023-03-25T02:15:24.947Z,7.20
2023-03-25T02:18:03.204Z,8.27
2023-03-25T02:20:58.711Z,5.88
2023-03-25T02:23:57.860Z,6.82
2023-03-25T02:26:37.963Z,6.32
2023-03-25T02:29:10.023Z,8.43
2023-03-25T02:31:46.052Z,10.23
2023-03-25T02:34:23.600Z,8.73
2023-03-25T02:37:04.970Z,9.02
2023-03-25T02:39:36.992Z,6.25
2023-03-25T02:42:07.883Z,12.70
2023-03-25T02:44:40.979Z,7.33
2023-03-25T02:47:13.210Z,8.40
2023-03-25T02:49:46.330Z,7.78
2023-03-25T02:52:17.361Z,8.23
2023-03-25T02:54:48.772Z,7.82
2023-03-25T02:57:19.058Z,7.60
2023-03-25T02:59:48.910Z,11.82
2023-03-25T03:02:19.267Z,8.23
2023-03-25T03:04:50.579Z,16.38
2023-03-25T03:07:23.376Z,8.82
2023-03-25T03:12:27.500Z,8.07
2023-03-25T03:15:00.580Z,10.18
2023-03-25T03:17:32.968Z,10.45
2023-03-25T03:20:05.824Z,10.77
2023-03-25T03:25:07.638Z,6.57
2023-03-25T03:27:40.318Z,7.20
2023-03-25T03:30:13.125Z,11.18
2023-03-25T03:32:43.440Z,9.15
2023-03-25T03:35:15.480Z,8.93
2023-03-25T03:37:46.163Z,7.43
2023-03-25T03:40:18.059Z,12.07
2023-03-25T03:42:51.661Z,10.57
2023-03-25T03:45:23.270Z,12.68
2023-03-25T03:47:54.413Z,12.55
2023-03-25T03:50:25.773Z,12.43
2023-03-25T03:52:59.902Z,8.30
2023-03-25T03:55:31.071Z,9.98
2023-03-25T03:58:06.561Z,8.77
2023-03-25T04:00:41.927Z,9.75
2023-03-25T04:03:15.979Z,10.63
2023-03-25T04:05:51.537Z,11.32
2023-03-25T04:08:24.009Z,13.77
2023-03-25T04:10:58.944Z,15.82
2023-03-25T04:13:34.132Z,14.18
2023-03-25T04:16:02.666Z,13.27
2023-03-25T04:18:33.627Z,11.98
2023-03-25T04:21:02.264Z,11.38
2023-03-25T04:23:31.415Z,8.85
2023-03-25T04:26:02.657Z,11.50
2023-03-25T04:28:32.791Z,10.13
2023-03-25T04:31:07.291Z,9.45
2023-03-25T04:33:35.937Z,9.80
2023-03-25T04:36:06.684Z,9.43
2023-03-25T04:38:37.646Z,9.15
2023-03-25T04:41:06.912Z,7.65
2023-03-25T04:43:39.253Z,10.57
2023-03-25T04:46:08.126Z,8.02
2023-03-25T04:48:41.706Z,10.40
2023-03-25T04:51:12.166Z,8.73
2023-03-25T04:53:40.648Z,10.75
2023-03-25T04:56:13.122Z,13.90
2023-03-25T04:58:42.924Z,12.23
2023-03-25T05:01:21.624Z,9.65
2023-03-25T05:03:50.941Z,13.82
2023-03-25T05:06:19.061Z,7.43
2023-03-25T05:08:47.154Z,7.30
2023-03-25T05:11:15.263Z,8.57
2023-03-25T05:13:44.835Z,9.00
2023-03-25T05:16:13.026Z,9.65
2023-03-25T05:18:41.199Z,9.32
2023-03-25T05:21:11.308Z,8.32
2023-03-25T05:23:43.176Z,7.57
2023-03-25T05:26:12.057Z,8.32
2023-03-25T05:28:40.830Z,8.98
2023-03-25T05:31:11.008Z,6.82
2023-03-25T05:33:42.769Z,6.22
2023-03-25T05:36:12.050Z,7.33
2023-03-25T05:38:43.595Z,4.95
2023-03-25T05:41:16.869Z,10.57
2023-03-25T05:46:18.873Z,7.05
2023-03-25T05:48:47.276Z,7.90
2023-03-25T05:51:18.268Z,3.95
2023-03-25T05:53:49.802Z,6.32
2023-03-25T05:56:19.257Z,3.85
2023-03-25T05:58:47.464Z,7.15
2023-03-25T06:01:32.118Z,3.53
2023-03-25T06:04:02.372Z,5.32
2023-03-25T06:06:34.377Z,7.35
2023-03-25T06:09:04.286Z,6.07
2023-03-25T06:11:38.288Z,6.73
2023-03-25T06:14:07.648Z,8.60
2023-03-25T06:16:37.649Z,4.20
2023-03-25T06:19:05.871Z,5.43
2023-03-25T06:21:37.007Z,4.00
2023-03-25T06:24:05.608Z,4.22
2023-03-25T06:26:34.123Z,5.63
2023-03-25T06:29:04.188Z,4.78
2023-03-25T06:31:34.212Z,5.70
2023-03-25T06:34:04.226Z,5.50
2023-03-25T06:36:34.840Z,4.82
2023-03-25T06:39:05.126Z,4.05
2023-03-25T06:41:35.799Z,6.63
2023-03-25T06:44:13.920Z,2.90
2023-03-25T06:46:48.079Z,3.90
2023-03-25T06:49:20.713Z,4.90
2023-03-25T06:51:50.637Z,4.75
2023-03-25T06:54:18.780Z,6.07
2023-03-25T06:56:46.991Z,5.15
2023-03-25T06:59:15.466Z,4.45
2023-03-25T07:01:44.018Z,4.75
2023-03-25T07:04:12.230Z,6.28
2023-03-25T07:06:42.796Z,7.43
2023-03-25T07:09:11.132Z,4.82
2023-03-25T07:11:39.489Z,4.95
2023-03-25T07:14:07.654Z,5.60
2023-03-25T07:16:35.826Z,4.75
2023-03-25T07:19:04.090Z,5.95
2023-03-25T07:21:32.398Z,2.33
2023-03-25T07:24:01.857Z,4.30
2023-03-25T07:26:30.146Z,4.80
2023-03-25T07:28:58.390Z,4.15
2023-03-25T07:31:26.758Z,4.70
2023-03-25T07:33:55.508Z,2.95
2023-03-25T07:36:25.253Z,5.03
2023-03-25T07:38:55.204Z,2.78
2023-03-25T07:41:26.075Z,4.30
2023-03-25T07:44:12.381Z,3.63
2023-03-25T07:46:40.693Z,7.15
2023-03-25T07:49:08.903Z,8.88
2023-03-25T07:51:37.085Z,3.88
2023-03-25T07:54:08.360Z,5.10
2023-03-25T07:56:37.896Z,5.93
2023-03-25T07:59:06.527Z,6.35
2023-03-25T08:01:34.672Z,7.13
2023-03-25T08:04:02.818Z,4.40
2023-03-25T08:06:31.132Z,5.88
2023-03-25T08:08:59.325Z,7.93
2023-03-25T08:11:27.439Z,7.70
2023-03-25T08:13:59.496Z,4.28
2023-03-25T08:16:28.005Z,3.88
2023-03-25T08:18:56.285Z,5.95
2023-03-25T08:21:27.390Z,5.60
2023-03-25T08:24:02.283Z,2.20
2023-03-25T08:26:31.330Z,5.90
2023-03-25T08:29:02.697Z,6.50
2023-03-25T08:31:32.798Z,4.55
2023-03-25T08:34:01.778Z,7.05
2023-03-25T08:36:32.520Z,5.90
2023-03-25T08:39:01.482Z,4.32
2023-03-25T08:41:29.621Z,8.27
2023-03-25T08:43:57.996Z,4.07
2023-03-25T08:46:27.578Z,6.13
2023-03-25T08:48:56.127Z,4.38
2023-03-25T08:51:24.496Z,7.00
2023-03-25T08:53:52.680Z,3.22
2023-03-25T08:56:20.922Z,3.20
2023-03-25T08:58:49.214Z,6.15
2023-03-25T09:01:17.400Z,4.30
2023-03-25T09:03:47.059Z,3.40
2023-03-25T09:06:15.647Z,3.97
2023-03-25T09:08:43.846Z,4.10
2023-03-25T09:11:30.126Z,3.45
2023-03-25T09:14:05.005Z,4.30
2023-03-25T09:16:33.431Z,5.30
2023-03-25T09:19:03.207Z,3.42
2023-03-25T09:21:34.165Z,4.35
2023-03-25T09:24:02.430Z,4.07
2023-03-25T09:26:30.625Z,4.68
2023-03-25T09:29:00.553Z,2.88
2023-03-25T09:31:29.157Z,5.03
2023-03-25T09:33:57.434Z,3.75
2023-03-25T09:36:27.038Z,4.07
2023-03-25T09:38:55.189Z,4.03
2023-03-25T09:41:42.798Z,2.35
2023-03-25T09:44:17.781Z,2.67
2023-03-25T09:46:46.378Z,3.22
2023-03-25T09:49:19.631Z,3.92
2023-03-25T09:51:52.318Z,3.60
2023-03-25T09:56:54.184Z,2.03
2023-03-25T10:02:03.417Z,5.65
2023-03-25T10:04:52.270Z,5.20
2023-03-25T10:07:38.062Z,2.35
2023-03-25T10:10:13.458Z,4.78
2023-03-25T10:12:48.765Z,3.38
2023-03-25T10:18:16.384Z,4.03
2023-03-25T10:20:55.844Z,5.13
2023-03-25T10:23:31.936Z,4.85
2023-03-25T10:26:05.916Z,4.22
2023-03-25T10:28:43.437Z,3.35
2023-03-25T10:31:17.474Z,3.00
2023-03-25T10:33:51.638Z,4.18
2023-03-25T10:36:22.049Z,5.38
2023-03-25T10:38:55.648Z,4.15
2023-03-25T10:41:27.666Z,3.78
2023-03-25T10:43:55.922Z,3.20
2023-03-25T10:46:30.928Z,7.93
2023-03-25T10:49:02.142Z,2.85
2023-03-25T10:51:33.257Z,5.20
2023-03-25T10:54:03.583Z,3.80
2023-03-25T10:56:36.193Z,2.88
2023-03-25T10:59:12.847Z,6.57
2023-03-25T11:01:42.722Z,7.97
2023-03-25T11:04:14.282Z,6.75
2023-03-25T11:06:46.830Z,3.92
2023-03-25T11:09:19.384Z,5.93
2023-03-25T11:11:48.662Z,3.28
2023-03-25T11:14:23.815Z,6.05
2023-03-25T11:16:57.359Z,3.30
2023-03-25T11:19:29.034Z,3.55
2023-03-25T11:22:02.722Z,2.90
2023-03-25T11:24:35.174Z,5.43
2023-03-25T11:27:04.095Z,3.13
2023-03-25T11:29:33.099Z,2.25
2023-03-25T11:32:08.072Z,5.10
2023-03-25T11:34:42.411Z,2.70
2023-03-25T11:37:17.595Z,4.47
2023-03-25T11:39:50.657Z,4.13
2023-03-25T11:42:25.942Z,4.80
2023-03-25T11:44:56.410Z,3.53
2023-03-25T11:47:27.183Z,4.00
2023-03-25T11:49:55.932Z,2.47
2023-03-25T11:52:26.481Z,3.85
2023-03-25T11:54:56.720Z,3.00
2023-03-25T11:57:27.601Z,2.53
2023-03-25T12:00:06.205Z,2.53
2023-03-25T12:02:41.479Z,3.05
2023-03-25T12:05:15.211Z,3.10
2023-03-25T12:07:44.578Z,2.95
2023-03-25T12:10:19.814Z,4.00
2023-03-25T12:12:52.025Z,2.63
2023-03-25T12:15:26.222Z,3.50
2023-03-25T12:18:01.498Z,4.50
2023-03-25T12:20:33.022Z,2.90
2023-03-25T12:23:04.584Z,3.03
2023-03-25T12:25:38.691Z,5.07
2023-03-25T12:28:17.603Z,3.42
2023-03-25T12:30:51.857Z,4.90
2023-03-25T12:33:28.134Z,3.17
2023-03-25T12:36:04.478Z,3.80
2023-03-25T12:38:38.594Z,3.67
2023-03-25T12:41:15.307Z,4.15
2023-03-25T12:43:50.283Z,2.53
2023-03-25T12:46:23.167Z,3.10
2023-03-25T12:48:59.957Z,4.70
2023-03-25T12:51:33.748Z,3.00
2023-03-25T12:54:07.357Z,1.77
2023-03-25T12:56:43.137Z,2.40
2023-03-25T12:59:26.974Z,2.25
2023-03-25T13:02:01.987Z,3.72
2023-03-25T13:04:39.943Z,2.85
2023-03-25T13:07:13.385Z,2.03
2023-03-25T13:09:46.536Z,4.88
2023-03-25T13:12:19.744Z,2.83
2023-03-25T13:14:53.675Z,3.17
2023-03-25T13:17:27.139Z,6.32
2023-03-25T13:19:57.556Z,4.03
2023-03-25T13:22:31.125Z,8.82
2023-03-25T13:25:00.891Z,7.97
2023-03-25T13:27:34.085Z,3.83
2023-03-25T13:30:04.247Z,3.22
2023-03-25T13:32:36.448Z,5.55
2023-03-25T13:35:09.249Z,3.55
2023-03-25T13:40:14.434Z,2.25
2023-03-25T13:42:46.688Z,2.55
2023-03-25T13:45:18.302Z,2.13
2023-03-25T13:47:51.166Z,3.97
2023-03-25T13:50:24.028Z,6.40
2023-03-25T13:55:23.840Z,4.20
2023-03-25T13:58:10.150Z,3.65
2023-03-25T14:00:56.819Z,3.40
2023-03-25T14:03:39.907Z,4.80
2023-03-25T14:09:01.754Z,2.25
2023-03-25T14:11:31.153Z,4.28
2023-03-25T14:14:02.017Z,1.80
2023-03-25T14:16:33.104Z,2.47
2023-03-25T14:19:04.870Z,1.73
2023-03-25T14:21:36.242Z,2.33
2023-03-25T14:24:06.268Z,2.42
2023-03-25T14:26:37.742Z,2.17
2023-03-25T14:29:09.887Z,3.92
2023-03-25T14:31:38.496Z,4.63
2023-03-25T14:34:27.977Z,3.53
2023-03-25T14:37:15.091Z,4.88
2023-03-25T14:39:44.388Z,2.30
2023-03-25T14:42:24.878Z,3.58
2023-03-25T14:44:55.193Z,8.73
2023-03-25T14:47:32.148Z,6.45
2023-03-25T14:50:06.932Z,2.67
2023-03-25T14:52:39.716Z,2.97
2023-03-25T14:57:41.568Z,6.60
2023-03-25T15:00:13.706Z,2.92
2023-03-25T15:02:43.439Z,3.30
2023-03-25T15:05:25.616Z,6.32
2023-03-25T15:07:59.206Z,2.25
2023-03-25T15:10:30.199Z,6.57
2023-03-25T15:13:02.421Z,4.68
2023-03-25T15:15:34.171Z,4.53
2023-03-25T15:18:02.766Z,4.95
2023-03-25T15:20:36.881Z,6.20
2023-03-25T15:23:33.505Z,7.72
2023-03-25T15:26:02.889Z,8.45
2023-03-25T15:28:42.038Z,2.25
2023-03-25T15:31:24.113Z,2.72
2023-03-25T15:34:02.082Z,4.82
2023-03-25T15:36:40.119Z,3.45
2023-03-25T15:39:16.913Z,3.38
2023-03-25T15:41:58.305Z,6.40
2023-03-25T15:44:35.790Z,2.60
2023-03-25T15:47:13.442Z,4.53
2023-03-25T15:50:02.104Z,4.80
2023-03-25T15:52:47.828Z,4.97
2023-03-25T15:55:19.516Z,5.97
2023-03-25T15:57:50.154Z,3.63
2023-03-25T16:00:22.461Z,3.70
2023-03-25T16:02:53.254Z,4.63
2023-03-25T16:05:22.312Z,4.93
2023-03-25T16:07:55.052Z,5.45
2023-03-25T16:10:31.054Z,6.35
2023-03-25T16:12:59.444Z,6.00
2023-03-25T16:15:29.182Z,6.63
2023-03-25T16:17:59.105Z,9.52
2023-03-25T16:20:28.918Z,6.55
2023-03-25T16:22:59.525Z,5.30
2023-03-25T16:25:28.926Z,10.68
2023-03-25T16:27:58.840Z,5.43
2023-03-25T16:30:30.563Z,7.40
2023-03-25T16:33:06.413Z,10.05
2023-03-25T16:35:37.076Z,5.30
2023-03-25T16:38:07.211Z,4.55
2023-03-25T16:40:40.172Z,4.68
2023-03-25T16:43:10.327Z,4.70
2023-03-25T16:45:41.842Z,5.97
2023-03-25T16:48:15.268Z,6.93
2023-03-25T16:50:44.079Z,8.02
2023-03-25T16:53:15.370Z,6.10
2023-03-25T16:55:47.212Z,8.70
2023-03-25T16:58:17.440Z,4.60
2023-03-25T17:00:49.305Z,5.50
2023-03-25T17:03:19.998Z,7.63
2023-03-25T17:05:55.060Z,10.05
2023-03-25T17:08:25.841Z,11.68
2023-03-25T17:10:56.976Z,12.00
2023-03-25T17:13:27.414Z,14.32
2023-03-25T17:15:56.254Z,13.80
2023-03-25T17:18:27.534Z,16.77
2023-03-25T17:20:58.035Z,14.07
2023-03-25T17:23:35.550Z,13.75
2023-03-25T17:26:07.520Z,15.15
2023-03-25T17:28:39.231Z,12.13
2023-03-25T17:31:22.220Z,10.88
2023-03-25T17:33:51.078Z,11.55
2023-03-25T17:36:21.252Z,7.93
2023-03-25T17:38:55.924Z,5.00
2023-03-25T17:41:29.491Z,6.55
2023-03-25T17:43:58.732Z,6.72
2023-03-25T17:46:28.232Z,7.40
2023-03-25T17:48:57.873Z,11.65
2023-03-25T17:51:29.105Z,10.38
2023-03-25T17:53:58.938Z,9.95
2023-03-25T17:56:28.527Z,10.85
2023-03-25T17:58:59.862Z,9.82
2023-03-25T18:01:28.738Z,11.18
2023-03-25T18:03:57.276Z,8.55
2023-03-25T18:06:28.726Z,14.63
2023-03-25T18:08:57.758Z,9.05
2023-03-25T18:11:27.576Z,10.23
2023-03-25T18:13:56.468Z,10.38
2023-03-25T18:16:25.054Z,10.70
2023-03-25T18:18:53.655Z,11.80
2023-03-25T18:21:23.234Z,13.48
2023-03-25T18:23:52.426Z,12.20
2023-03-25T18:26:21.307Z,12.80
2023-03-25T18:28:52.059Z,14.10
2023-03-25T18:31:23.410Z,18.00
2023-03-25T18:33:52.335Z,16.20
2023-03-25T18:36:21.000Z,17.58
2023-03-25T18:38:50.067Z,13.02
2023-03-25T18:41:18.492Z,12.13
2023-03-25T18:43:47.147Z,12.65
2023-03-25T18:46:17.512Z,12.63
2023-03-25T18:48:46.157Z,7.30
2023-03-25T18:51:14.993Z,7.88
2023-03-25T18:53:43.741Z,7.13
2023-03-25T18:56:12.381Z,6.90
2023-03-25T18:58:40.985Z,6.55
2023-03-25T19:01:10.154Z,7.90
2023-03-25T19:03:43.225Z,8.98
2023-03-25T19:06:15.734Z,8.15
2023-03-25T19:08:45.411Z,10.48
2023-03-25T19:11:20.747Z,8.18
2023-03-25T19:13:50.655Z,8.38
2023-03-25T19:16:22.524Z,12.25
2023-03-25T19:18:52.752Z,8.02
2023-03-25T19:21:21.994Z,6.82
2023-03-25T19:23:52.296Z,5.75
2023-03-25T19:26:21.609Z,7.07
2023-03-25T19:28:50.148Z,7.03
2023-03-25T19:31:19.203Z,9.73
2023-03-25T19:33:47.769Z,7.20
2023-03-25T19:36:19.068Z,5.25
2023-03-25T19:38:47.879Z,5.45
2023-03-25T19:41:17.233Z,7.18
2023-03-25T19:43:48.327Z,4.47
2023-03-25T19:46:16.910Z,5.47
2023-03-25T19:48:46.308Z,3.35
2023-03-25T19:51:14.848Z,3.38
2023-03-25T19:53:44.863Z,6.35
2023-03-25T19:56:14.269Z,5.25
2023-03-25T19:58:43.829Z,4.80
2023-03-25T20:01:12.760Z,7.35
2023-03-25T20:03:43.154Z,3.22
2023-03-25T20:06:12.294Z,6.30
2023-03-25T20:08:41.251Z,5.10
2023-03-25T20:11:12.290Z,7.63
2023-03-25T20:13:41.081Z,3.42
2023-03-25T20:16:11.104Z,5.65
2023-03-25T20:18:41.263Z,4.80
2023-03-25T20:21:10.369Z,4.70
2023-03-25T20:23:39.116Z,4.90
2023-03-25T20:26:07.831Z,4.57
2023-03-25T20:28:37.830Z,5.43
2023-03-25T20:31:20.658Z,6.55
2023-03-25T20:33:52.502Z,4.22
2023-03-25T20:36:21.621Z,5.55
2023-03-25T20:38:57.283Z,4.97
2023-03-25T20:41:26.829Z,6.20
2023-03-25T20:43:56.965Z,5.78
2023-03-25T20:46:28.548Z,3.17
2023-03-25T20:48:57.891Z,4.57
2023-03-25T20:51:26.788Z,3.55
2023-03-25T20:53:55.651Z,3.70
2023-03-25T20:56:24.396Z,4.18
2023-03-25T20:58:56.847Z,3.22
2023-03-25T21:01:25.984Z,4.55
2023-03-25T21:03:54.401Z,4.45
2023-03-25T21:06:26.599Z,5.75
2023-03-25T21:08:58.332Z,3.72
2023-03-25T21:11:30.375Z,4.03
2023-03-25T21:14:00.240Z,6.57
2023-03-25T21:16:28.840Z,8.40
2023-03-25T21:19:01.596Z,7.22
2023-03-25T21:21:30.416Z,4.07
2023-03-25T21:23:59.080Z,5.00
2023-03-25T21:26:27.874Z,6.28
2023-03-25T21:28:57.945Z,5.47
2023-03-25T21:31:28.647Z,9.63
2023-03-25T21:33:58.010Z,7.75
2023-03-25T21:36:31.689Z,5.43
2023-03-25T21:39:00.902Z,8.95
2023-03-25T21:41:30.355Z,6.38
2023-03-25T21:43:58.944Z,7.55
2023-03-25T21:46:29.099Z,6.38
2023-03-25T21:49:00.785Z,4.82
2023-03-25T21:51:31.163Z,7.65
2023-03-25T21:54:00.471Z,7.00
2023-03-25T21:56:31.407Z,5.07
2023-03-25T21:59:01.762Z,6.18
2023-03-25T22:01:32.663Z,6.82
2023-03-25T22:04:01.858Z,9.25
2023-03-25T22:06:31.301Z,6.93
2023-03-25T22:09:05.292Z,6.70
2023-03-25T22:11:38.714Z,6.78
2023-03-25T22:14:09.424Z,7.70
2023-03-25T22:16:39.769Z,9.52
2023-03-25T22:19:08.598Z,9.30
2023-03-25T22:21:39.250Z,6.60
2023-03-25T22:24:09.096Z,8.30
2023-03-25T22:26:39.430Z,7.30
2023-03-25T22:29:09.141Z,9.85
2023-03-25T22:31:40.676Z,5.30
2023-03-25T22:34:12.073Z,6.07
2023-03-25T22:36:41.483Z,7.05
2023-03-25T22:39:10.660Z,6.70
2023-03-25T22:41:39.525Z,7.90
2023-03-25T22:44:08.613Z,5.95
2023-03-25T22:46:37.189Z,7.75
2023-03-25T22:49:07.676Z,5.85
2023-03-25T22:51:36.176Z,4.75
2023-03-25T22:54:09.843Z,7.13
2023-03-25T22:56:38.537Z,7.85
2023-03-25T22:59:08.453Z,6.13
2023-03-25T23:01:37.099Z,9.18
2023-03-25T23:04:09.968Z,6.40
2023-03-25T23:06:41.658Z,5.40
2023-03-25T23:09:11.188Z,8.40
2023-03-25T23:11:41.746Z,5.68
2023-03-25T23:14:13.019Z,4.50
2023-03-25T23:16:42.269Z,6.20
2023-03-25T23:19:13.760Z,7.00
2023-03-25T23:21:42.264Z,7.50
2023-03-25T23:24:11.792Z,7.78
2023-03-25T23:26:41.510Z,6.88
2023-03-25T23:29:11.590Z,4.85
2023-03-25T23:31:41.207Z,6.72
2023-03-25T23:34:11.271Z,8.25
2023-03-25T23:36:41.701Z,5.95
2023-03-25T23:39:11.348Z,6.78
2023-03-25T23:41:40.411Z,7.72
2023-03-25T23:44:09.200Z,6.43
2023-03-25T23:46:38.078Z,9.13
2023-03-25T23:49:06.934Z,8.48
2023-03-25T23:51:37.437Z,7.90
2023-03-25T23:54:11.486Z,10.50
2023-03-25T23:56:40.096Z,7.55
2023-03-25T23:59:08.762Z,6.93
